createdAt,value
2022-07-25T00:00:55.009Z,979.89
2022-07-25T00:01:54.975Z,979.95
2022-07-25T00:02:54.950Z,979.93
2022-07-25T00:03:55.121Z,979.92
2022-07-25T00:04:55.011Z,979.88
2022-07-25T00:05:55.105Z,979.88
2022-07-25T00:06:55.025Z,979.86
2022-07-25T00:07:55.098Z,979.82
2022-07-25T00:08:54.852Z,979.82
2022-07-25T00:09:55.102Z,979.78
2022-07-25T00:10:54.813Z,979.74
2022-07-25T00:11:54.893Z,979.80
2022-07-25T00:12:54.935Z,979.77
2022-07-25T00:13:54.805Z,979.75
2022-07-25T00:14:54.744Z,979.73
2022-07-25T00:15:54.854Z,979.68
2022-07-25T00:16:54.933Z,979.70
2022-07-25T00:17:54.797Z,979.69
2022-07-25T00:18:54.718Z,979.69
2022-07-25T00:19:54.708Z,979.66
2022-07-25T00:20:54.961Z,979.64
2022-07-25T00:21:54.806Z,979.66
2022-07-25T00:22:54.737Z,979.67
2022-07-25T00:23:54.767Z,979.65
2022-07-25T00:24:54.629Z,979.68
2022-07-25T00:25:54.633Z,979.70
2022-07-25T00:26:54.612Z,979.65
2022-07-25T00:27:54.606Z,979.68
2022-07-25T00:28:54.644Z,979.71
2022-07-25T00:29:54.571Z,979.60
2022-07-25T00:30:54.715Z,979.60
2022-07-25T00:31:54.541Z,979.65
2022-07-25T00:32:54.612Z,979.63
2022-07-25T00:33:54.501Z,979.60
2022-07-25T00:34:54.547Z,979.63
2022-07-25T00:35:54.527Z,979.62
2022-07-25T00:36:54.468Z,979.60
2022-07-25T00:37:54.468Z,979.63
2022-07-25T00:38:54.447Z,979.59
2022-07-25T00:39:54.478Z,979.61
2022-07-25T00:40:55.665Z,979.61
2022-07-25T00:41:54.459Z,979.59
2022-07-25T00:42:54.409Z,979.58
2022-07-25T00:43:54.458Z,979.55
2022-07-25T00:44:54.406Z,979.56
2022-07-25T00:45:54.489Z,979.53
2022-07-25T00:46:54.551Z,979.55
2022-07-25T00:47:54.463Z,979.54
2022-07-25T00:48:54.402Z,979.57
2022-07-25T00:49:54.452Z,979.55
2022-07-25T00:50:54.302Z,979.52
2022-07-25T00:51:54.533Z,979.50
2022-07-25T00:52:54.292Z,979.56
2022-07-25T00:53:54.452Z,979.46
2022-07-25T00:54:54.299Z,979.50
2022-07-25T00:55:54.468Z,979.45
2022-07-25T00:56:54.297Z,979.41
2022-07-25T00:57:54.245Z,979.48
2022-07-25T00:58:54.308Z,979.46
2022-07-25T00:59:54.176Z,979.46
2022-07-25T01:00:54.147Z,979.41
2022-07-25T01:01:54.179Z,979.46
2022-07-25T01:02:54.459Z,979.44
2022-07-25T01:03:54.140Z,979.45
2022-07-25T01:04:54.325Z,979.43
2022-07-25T01:05:54.177Z,979.46
2022-07-25T01:06:54.093Z,979.49
2022-07-25T01:07:54.146Z,979.41
2022-07-25T01:08:54.386Z,979.45
2022-07-25T01:09:54.134Z,979.40
2022-07-25T01:10:54.045Z,979.41
2022-07-25T01:11:54.133Z,979.41
2022-07-25T01:12:54.013Z,979.40
2022-07-25T01:13:54.031Z,979.39
2022-07-25T01:14:53.966Z,979.37
2022-07-25T01:15:54.211Z,979.35
2022-07-25T01:16:53.985Z,979.40
2022-07-25T01:17:53.927Z,979.36
2022-07-25T01:18:53.978Z,979.36
2022-07-25T01:19:54.226Z,979.32
2022-07-25T01:20:54.048Z,979.36
2022-07-25T01:21:53.946Z,979.28
2022-07-25T01:22:53.967Z,979.28
2022-07-25T01:23:54.126Z,979.33
2022-07-25T01:24:53.822Z,979.28
2022-07-25T01:25:53.846Z,979.35
2022-07-25T01:26:54.060Z,979.34
2022-07-25T01:27:55.705Z,979.31
2022-07-25T01:28:53.805Z,979.32
2022-07-25T01:29:53.812Z,979.36
2022-07-25T01:30:53.843Z,979.38
2022-07-25T01:31:53.812Z,979.35
2022-07-25T01:32:53.769Z,979.37
2022-07-25T01:33:53.813Z,979.39
2022-07-25T01:34:53.712Z,979.38
2022-07-25T01:35:53.687Z,979.39
2022-07-25T01:36:53.667Z,979.39
2022-07-25T01:37:53.729Z,979.41
2022-07-25T01:38:54.053Z,979.39
2022-07-25T01:39:53.628Z,979.35
2022-07-25T01:40:53.656Z,979.37
2022-07-25T01:41:53.598Z,979.37
2022-07-25T01:42:53.726Z,979.37
2022-07-25T01:43:53.817Z,979.33
2022-07-25T01:44:53.652Z,979.31
2022-07-25T01:45:53.616Z,979.31
2022-07-25T01:46:53.652Z,979.34
2022-07-25T01:47:53.550Z,979.30
2022-07-25T01:48:53.817Z,979.29
2022-07-25T01:49:53.491Z,979.24
2022-07-25T01:50:53.652Z,979.23
2022-07-25T01:51:53.532Z,979.27
2022-07-25T01:52:53.674Z,979.24
2022-07-25T01:53:53.491Z,979.28
2022-07-25T01:54:53.676Z,979.25
2022-07-25T01:55:53.498Z,979.24
2022-07-25T01:56:53.686Z,979.26
2022-07-25T01:57:53.387Z,979.25
2022-07-25T01:58:53.677Z,979.24
2022-07-25T01:59:53.535Z,979.23
2022-07-25T02:00:53.432Z,979.20
2022-07-25T02:01:53.546Z,979.22
2022-07-25T02:02:53.346Z,979.21
2022-07-25T02:03:53.518Z,979.17
2022-07-25T02:04:53.429Z,979.19
2022-07-25T02:05:53.522Z,979.15
2022-07-25T02:06:53.401Z,979.17
2022-07-25T02:07:53.311Z,979.19
2022-07-25T02:08:53.332Z,979.18
2022-07-25T02:09:56.726Z,979.18
2022-07-25T02:10:53.338Z,979.18
2022-07-25T02:11:53.492Z,979.17
2022-07-25T02:12:53.206Z,979.17
2022-07-25T02:13:53.235Z,979.13
2022-07-25T02:14:53.347Z,979.10
2022-07-25T02:15:53.207Z,979.13
2022-07-25T02:16:53.373Z,979.12
2022-07-25T02:17:53.182Z,979.18
2022-07-25T02:18:53.356Z,979.16
2022-07-25T02:19:53.196Z,979.16
2022-07-25T02:20:53.357Z,979.13
2022-07-25T02:21:53.177Z,979.16
2022-07-25T02:22:53.047Z,979.11
2022-07-25T02:23:53.187Z,979.09
2022-07-25T02:24:53.352Z,979.06
2022-07-25T02:25:53.199Z,979.09
2022-07-25T02:26:52.993Z,979.06
2022-07-25T02:27:53.181Z,979.07
2022-07-25T02:28:53.042Z,979.05
2022-07-25T02:29:53.202Z,979.05
2022-07-25T02:30:53.105Z,979.02
2022-07-25T02:31:52.924Z,979.01
2022-07-25T02:32:53.033Z,979.00
2022-07-25T02:33:52.922Z,979.03
2022-07-25T02:34:53.036Z,979.00
2022-07-25T02:35:52.969Z,979.04
2022-07-25T02:36:52.857Z,979.04
2022-07-25T02:37:52.886Z,979.02
2022-07-25T02:38:52.841Z,979.03
2022-07-25T02:39:52.817Z,979.00
2022-07-25T02:40:52.798Z,979.00
2022-07-25T02:41:52.948Z,978.97
2022-07-25T02:42:52.786Z,979.04
2022-07-25T02:43:52.877Z,978.99
2022-07-25T02:44:52.760Z,979.00
2022-07-25T02:45:53.039Z,979.01
2022-07-25T02:46:53.042Z,979.03
2022-07-25T02:47:53.191Z,979.03
2022-07-25T02:48:52.799Z,979.00
2022-07-25T02:49:52.851Z,979.03
2022-07-25T02:50:52.724Z,979.04
2022-07-25T02:51:52.852Z,979.03
2022-07-25T02:52:52.711Z,979.00
2022-07-25T02:53:58.134Z,979.02
2022-07-25T02:54:52.692Z,979.01
2022-07-25T02:55:52.877Z,979.07
2022-07-25T02:56:52.707Z,979.04
2022-07-25T02:57:52.576Z,979.11
2022-07-25T02:58:52.586Z,979.04
2022-07-25T02:59:52.597Z,979.02
2022-07-25T03:00:52.767Z,979.04
2022-07-25T03:01:52.620Z,979.07
2022-07-25T03:02:52.697Z,979.00
2022-07-25T03:03:52.615Z,979.06
2022-07-25T03:04:52.693Z,978.97
2022-07-25T03:05:52.612Z,979.07
2022-07-25T03:06:52.469Z,979.05
2022-07-25T03:07:52.530Z,978.98
2022-07-25T03:08:52.443Z,979.01
2022-07-25T03:09:52.533Z,978.99
2022-07-25T03:10:52.472Z,978.99
2022-07-25T03:11:52.533Z,978.94
2022-07-25T03:12:52.409Z,978.92
2022-07-25T03:13:52.534Z,979.00
2022-07-25T03:14:52.371Z,979.02
2022-07-25T03:15:52.548Z,978.98
2022-07-25T03:16:52.502Z,979.00
2022-07-25T03:17:52.538Z,978.91
2022-07-25T03:18:52.386Z,978.97
2022-07-25T03:19:52.297Z,978.93
2022-07-25T03:20:52.377Z,978.97
2022-07-25T03:21:52.538Z,978.90
2022-07-25T03:22:52.318Z,978.88
2022-07-25T03:23:52.973Z,978.93
2022-07-25T03:24:52.377Z,978.93
2022-07-25T03:25:52.212Z,978.91
2022-07-25T03:26:52.421Z,978.93
2022-07-25T03:27:52.202Z,978.88
2022-07-25T03:28:52.241Z,978.96
2022-07-25T03:29:52.162Z,978.92
2022-07-25T03:30:52.169Z,978.91
2022-07-25T03:31:52.238Z,978.95
2022-07-25T03:32:52.117Z,978.96
2022-07-25T03:33:52.186Z,978.97
2022-07-25T03:34:52.070Z,978.96
2022-07-25T03:35:52.234Z,978.94
2022-07-25T03:36:52.077Z,978.94
2022-07-25T03:37:52.059Z,978.88
2022-07-25T03:38:52.126Z,978.91
2022-07-25T03:39:52.219Z,978.95
2022-07-25T03:40:52.009Z,978.93
2022-07-25T03:41:51.987Z,978.93
2022-07-25T03:42:51.988Z,978.92
2022-07-25T03:43:51.970Z,978.90
2022-07-25T03:44:52.118Z,978.91
2022-07-25T03:45:52.070Z,978.88
2022-07-25T03:46:52.082Z,978.91
2022-07-25T03:47:51.924Z,978.92
2022-07-25T03:48:52.164Z,978.90
2022-07-25T03:49:51.923Z,978.89
2022-07-25T03:50:51.931Z,978.86
2022-07-25T03:51:51.913Z,978.86
2022-07-25T03:52:51.841Z,978.88
2022-07-25T03:53:51.892Z,978.91
2022-07-25T03:54:51.812Z,978.94
2022-07-25T03:55:51.952Z,978.88
2022-07-25T03:56:51.806Z,978.89
2022-07-25T03:57:51.897Z,978.87
2022-07-25T03:58:51.779Z,978.83
2022-07-25T03:59:51.897Z,978.83
2022-07-25T04:00:51.888Z,978.84
2022-07-25T04:01:52.022Z,978.77
2022-07-25T04:02:51.775Z,978.83
2022-07-25T04:03:51.897Z,978.74
2022-07-25T04:04:51.726Z,978.76
2022-07-25T04:05:51.897Z,978.79
2022-07-25T04:06:51.848Z,978.78
2022-07-25T04:07:51.901Z,978.74
2022-07-25T04:08:51.732Z,978.76
2022-07-25T04:09:51.893Z,978.70
2022-07-25T04:10:51.733Z,978.74
2022-07-25T04:11:51.662Z,978.74
2022-07-25T04:12:51.732Z,978.72
2022-07-25T04:13:51.583Z,978.73
2022-07-25T04:14:51.548Z,978.63
2022-07-25T04:15:51.574Z,978.69
2022-07-25T04:16:51.640Z,978.69
2022-07-25T04:17:51.686Z,978.67
2022-07-25T04:18:51.885Z,978.64
2022-07-25T04:19:51.597Z,978.64
2022-07-25T04:20:51.736Z,978.69
2022-07-25T04:21:51.465Z,978.66
2022-07-25T04:22:51.457Z,978.66
2022-07-25T04:23:51.654Z,978.65
2022-07-25T04:24:51.428Z,978.64
2022-07-25T04:25:51.406Z,978.62
2022-07-25T04:26:51.415Z,978.61
2022-07-25T04:27:51.581Z,978.58
2022-07-25T04:28:51.439Z,978.61
2022-07-25T04:29:51.453Z,978.60
2022-07-25T04:30:51.410Z,978.58
2022-07-25T04:31:51.694Z,978.64
2022-07-25T04:32:51.431Z,978.56
2022-07-25T04:33:51.300Z,978.58
2022-07-25T04:34:51.292Z,978.53
2022-07-25T04:35:51.335Z,978.57
2022-07-25T04:36:51.253Z,978.56
2022-07-25T04:37:51.269Z,978.55
2022-07-25T04:38:51.426Z,978.59
2022-07-25T04:39:51.266Z,978.58
2022-07-25T04:40:51.267Z,978.56
2022-07-25T04:41:51.259Z,978.59
2022-07-25T04:42:51.436Z,978.60
2022-07-25T04:43:51.278Z,978.59
2022-07-25T04:44:51.436Z,978.59
2022-07-25T04:45:51.187Z,978.61
2022-07-25T04:46:51.441Z,978.61
2022-07-25T04:47:51.122Z,978.61
2022-07-25T04:48:51.301Z,978.64
2022-07-25T04:49:51.091Z,978.61
2022-07-25T04:50:51.124Z,978.64
2022-07-25T04:51:51.271Z,978.59
2022-07-25T04:52:51.091Z,978.62
2022-07-25T04:53:51.057Z,978.57
2022-07-25T04:54:51.011Z,978.59
2022-07-25T04:55:51.025Z,978.58
2022-07-25T04:56:51.091Z,978.58
2022-07-25T04:57:51.345Z,978.57
2022-07-25T04:58:51.105Z,978.54
2022-07-25T04:59:50.957Z,978.54
2022-07-25T05:00:51.195Z,978.57
2022-07-25T05:01:51.007Z,978.51
2022-07-25T05:02:50.986Z,978.55
2022-07-25T05:03:50.982Z,978.51
2022-07-25T05:04:52.106Z,978.57
2022-07-25T05:05:50.959Z,978.52
2022-07-25T05:06:51.085Z,978.53
2022-07-25T05:07:51.006Z,978.50
2022-07-25T05:08:51.107Z,978.51
2022-07-25T05:09:50.941Z,978.47
2022-07-25T05:10:51.120Z,978.44
2022-07-25T05:11:55.987Z,978.48
2022-07-25T05:12:51.103Z,978.46
2022-07-25T05:13:51.012Z,978.51
2022-07-25T05:14:50.771Z,978.50
2022-07-25T05:15:50.951Z,978.55
2022-07-25T05:16:50.904Z,978.45
2022-07-25T05:17:50.931Z,978.47
2022-07-25T05:18:50.855Z,978.55
2022-07-25T05:19:50.936Z,978.44
2022-07-25T05:20:50.785Z,978.53
2022-07-25T05:21:50.691Z,978.45
2022-07-25T05:22:50.786Z,978.53
2022-07-25T05:23:50.716Z,978.56
2022-07-25T05:24:50.798Z,978.49
2022-07-25T05:25:50.619Z,978.54
2022-07-25T05:26:50.799Z,978.50
2022-07-25T05:27:50.576Z,978.54
2022-07-25T05:28:50.784Z,978.53
2022-07-25T05:29:50.614Z,978.51
2022-07-25T05:30:50.771Z,978.54
2022-07-25T05:31:50.603Z,978.54
2022-07-25T05:32:50.774Z,978.57
2022-07-25T05:33:50.484Z,978.54
2022-07-25T05:34:50.842Z,978.56
2022-07-25T05:35:50.611Z,978.50
2022-07-25T05:36:50.466Z,978.57
2022-07-25T05:37:50.467Z,978.54
2022-07-25T05:38:50.448Z,978.53
2022-07-25T05:39:50.436Z,978.47
2022-07-25T05:40:50.536Z,978.48
2022-07-25T05:41:50.406Z,978.49
2022-07-25T05:42:50.390Z,978.47
2022-07-25T05:43:50.617Z,978.48
2022-07-25T05:44:50.476Z,978.49
2022-07-25T05:45:50.406Z,978.58
2022-07-25T05:46:50.427Z,978.54
2022-07-25T05:47:50.339Z,978.54
2022-07-25T05:48:50.403Z,978.54
2022-07-25T05:49:50.292Z,978.52
2022-07-25T05:50:50.389Z,978.53
2022-07-25T05:51:50.327Z,978.47
2022-07-25T05:52:50.271Z,978.48
2022-07-25T05:53:50.311Z,978.52
2022-07-25T05:54:50.240Z,978.50
2022-07-25T05:55:50.291Z,978.48
2022-07-25T05:56:50.276Z,978.52
2022-07-25T05:57:50.222Z,978.49
2022-07-25T05:58:50.197Z,978.49
2022-07-25T05:59:50.311Z,978.49
2022-07-25T06:00:50.457Z,978.52
2022-07-25T06:01:50.356Z,978.59
2022-07-25T06:02:50.414Z,978.57
2022-07-25T06:03:50.317Z,978.51
2022-07-25T06:04:50.161Z,978.54
2022-07-25T06:05:50.132Z,978.50
2022-07-25T06:06:50.162Z,978.50
2022-07-25T06:07:50.081Z,978.50
2022-07-25T06:08:50.472Z,978.54
2022-07-25T06:09:50.070Z,978.51
2022-07-25T06:10:50.150Z,978.52
2022-07-25T06:11:59.902Z,978.51
2022-07-25T06:12:50.018Z,978.49
2022-07-25T06:13:50.106Z,978.50
2022-07-25T06:14:50.137Z,978.47
2022-07-25T06:15:50.004Z,978.44
2022-07-25T06:16:50.317Z,978.49
2022-07-25T06:17:49.982Z,978.45
2022-07-25T06:18:50.145Z,978.44
2022-07-25T06:19:50.064Z,978.42
2022-07-25T06:20:50.149Z,978.45
2022-07-25T06:21:49.986Z,978.44
2022-07-25T06:22:50.267Z,978.42
2022-07-25T06:23:49.993Z,978.46
2022-07-25T06:24:49.881Z,978.46
2022-07-25T06:25:50.654Z,978.50
2022-07-25T06:26:49.865Z,978.49
2022-07-25T06:27:49.971Z,978.52
2022-07-25T06:28:49.880Z,978.56
2022-07-25T06:29:49.971Z,978.54
2022-07-25T06:30:49.820Z,978.42
2022-07-25T06:31:50.155Z,978.43
2022-07-25T06:32:49.811Z,978.40
2022-07-25T06:33:50.321Z,978.41
2022-07-25T06:34:49.806Z,978.46
2022-07-25T06:35:49.977Z,978.47
2022-07-25T06:36:49.837Z,978.47
2022-07-25T06:37:49.966Z,978.40
2022-07-25T06:38:49.817Z,978.40
2022-07-25T06:39:49.801Z,978.42
2022-07-25T06:40:49.817Z,978.41
2022-07-25T06:41:49.660Z,978.44
2022-07-25T06:42:49.810Z,978.40
2022-07-25T06:43:49.651Z,978.41
2022-07-25T06:44:49.810Z,978.41
2022-07-25T06:45:49.667Z,978.39
2022-07-25T06:46:50.178Z,978.37
2022-07-25T06:47:49.651Z,978.42
2022-07-25T06:48:49.954Z,978.38
2022-07-25T06:49:49.575Z,978.37
2022-07-25T06:50:49.616Z,978.41
2022-07-25T06:51:49.545Z,978.42
2022-07-25T06:52:49.554Z,978.34
2022-07-25T06:53:49.680Z,978.30
2022-07-25T06:54:49.495Z,978.35
2022-07-25T06:55:49.644Z,978.28
2022-07-25T06:56:49.565Z,978.30
2022-07-25T06:57:49.505Z,978.30
2022-07-25T06:58:49.492Z,978.31
2022-07-25T06:59:49.452Z,978.26
2022-07-25T07:00:49.556Z,978.24
2022-07-25T07:01:51.808Z,978.26
2022-07-25T07:02:49.807Z,978.30
2022-07-25T07:03:49.727Z,978.22
2022-07-25T07:04:49.492Z,978.27
2022-07-25T07:05:49.397Z,978.25
2022-07-25T07:06:49.419Z,978.22
2022-07-25T07:07:49.355Z,978.27
2022-07-25T07:08:49.816Z,978.21
2022-07-25T07:09:49.335Z,978.21
2022-07-25T07:10:49.496Z,978.26
2022-07-25T07:11:49.347Z,978.24
2022-07-25T07:12:49.286Z,978.21
2022-07-25T07:13:49.351Z,978.25
2022-07-25T07:14:49.625Z,978.26
2022-07-25T07:15:49.404Z,978.26
2022-07-25T07:16:49.305Z,978.24
2022-07-25T07:17:49.331Z,978.26
2022-07-25T07:18:49.693Z,978.21
2022-07-25T07:19:49.335Z,978.21
2022-07-25T07:20:49.292Z,978.20
2022-07-25T07:21:49.333Z,978.17
2022-07-25T07:22:49.186Z,978.17
2022-07-25T07:23:49.195Z,978.20
2022-07-25T07:24:49.186Z,978.15
2022-07-25T07:25:49.337Z,978.16
2022-07-25T07:26:49.258Z,978.15
2022-07-25T07:27:49.346Z,978.15
2022-07-25T07:28:49.167Z,978.16
2022-07-25T07:29:49.346Z,978.14
2022-07-25T07:31:49.591Z,978.12
2022-07-25T07:32:49.204Z,978.16
2022-07-25T07:33:49.088Z,978.16
2022-07-25T07:34:49.171Z,978.13
2022-07-25T07:35:49.045Z,978.13
2022-07-25T07:36:49.011Z,978.11
2022-07-25T07:37:49.083Z,978.17
2022-07-25T07:38:48.961Z,978.11
2022-07-25T07:39:49.037Z,978.13
2022-07-25T07:40:49.186Z,978.09
2022-07-25T07:41:49.029Z,978.08
2022-07-25T07:42:49.246Z,978.07
2022-07-25T07:43:49.027Z,978.09
2022-07-25T07:44:49.177Z,978.09
2022-07-25T07:45:49.036Z,978.11
2022-07-25T07:46:49.001Z,978.07
2022-07-25T07:47:49.111Z,978.06
2022-07-25T07:48:48.996Z,978.04
2022-07-25T07:49:50.467Z,978.05
2022-07-25T07:50:48.870Z,978.00
2022-07-25T07:51:49.039Z,978.04
2022-07-25T07:52:48.884Z,978.03
2022-07-25T07:53:49.108Z,978.07
2022-07-25T07:54:48.801Z,978.07
2022-07-25T07:55:48.916Z,978.05
2022-07-25T07:56:48.867Z,978.04
2022-07-25T07:57:49.016Z,978.03
2022-07-25T07:58:49.202Z,978.04
2022-07-25T07:59:48.756Z,978.03
2022-07-25T08:00:48.871Z,978.09
2022-07-25T08:01:48.830Z,978.07
2022-07-25T08:02:48.936Z,978.07
2022-07-25T08:03:48.762Z,978.05
2022-07-25T08:04:48.710Z,978.07
2022-07-25T08:05:48.690Z,978.03
2022-07-25T08:06:48.676Z,978.08
2022-07-25T08:07:48.670Z,978.02
2022-07-25T08:08:48.665Z,978.00
2022-07-25T08:09:48.703Z,977.98
2022-07-25T08:10:48.691Z,977.99
2022-07-25T08:11:48.626Z,977.99
2022-07-25T08:12:48.640Z,977.97
2022-07-25T08:13:48.701Z,978.03
2022-07-25T08:14:48.597Z,977.95
2022-07-25T08:15:48.794Z,977.97
2022-07-25T08:16:48.616Z,977.93
2022-07-25T08:17:48.548Z,977.95
2022-07-25T08:18:48.575Z,977.94
2022-07-25T08:19:48.527Z,977.96
2022-07-25T08:20:48.560Z,977.93
2022-07-25T08:21:48.573Z,977.95
2022-07-25T08:22:50.871Z,977.93
2022-07-25T08:23:48.505Z,977.89
2022-07-25T08:24:48.530Z,977.95
2022-07-25T08:25:48.450Z,977.95
2022-07-25T08:26:48.632Z,977.87
2022-07-25T08:27:48.720Z,977.89
2022-07-25T08:28:59.850Z,977.89
2022-07-25T08:29:48.416Z,977.86
2022-07-25T08:30:48.624Z,977.84
2022-07-25T08:31:48.463Z,977.84
2022-07-25T08:32:48.425Z,977.87
2022-07-25T08:33:48.437Z,977.79
2022-07-25T08:34:48.347Z,977.82
2022-07-25T08:35:48.377Z,977.85
2022-07-25T08:36:48.566Z,977.84
2022-07-25T08:37:48.406Z,977.79
2022-07-25T08:38:48.633Z,977.82
2022-07-25T08:39:48.372Z,977.78
2022-07-25T08:40:48.530Z,977.80
2022-07-25T08:41:48.371Z,977.77
2022-07-25T08:42:48.551Z,977.78
2022-07-25T08:43:48.401Z,977.78
2022-07-25T08:44:48.312Z,977.77
2022-07-25T08:45:48.395Z,977.80
2022-07-25T08:46:48.294Z,977.74
2022-07-25T08:47:48.188Z,977.78
2022-07-25T08:48:48.303Z,977.75
2022-07-25T08:49:48.376Z,977.78
2022-07-25T08:50:48.313Z,977.75
2022-07-25T08:51:51.782Z,977.74
2022-07-25T08:52:48.215Z,977.75
2022-07-25T08:53:48.789Z,977.67
2022-07-25T08:54:48.242Z,977.67
2022-07-25T08:55:48.161Z,977.68
2022-07-25T08:56:48.246Z,977.66
2022-07-25T08:57:48.081Z,977.64
2022-07-25T08:58:48.210Z,977.61
2022-07-25T08:59:48.052Z,977.61
2022-07-25T09:00:48.283Z,977.64
2022-07-25T09:01:48.190Z,977.61
2022-07-25T09:02:48.058Z,977.59
2022-07-25T09:03:48.056Z,977.61
2022-07-25T09:04:48.216Z,977.64
2022-07-25T09:05:48.077Z,977.65
2022-07-25T09:06:48.005Z,977.60
2022-07-25T09:07:48.056Z,977.63
2022-07-25T09:08:48.216Z,977.63
2022-07-25T09:09:48.071Z,977.66
2022-07-25T09:10:48.222Z,977.70
2022-07-25T09:11:47.914Z,977.64
2022-07-25T09:12:48.021Z,977.68
2022-07-25T09:13:47.928Z,977.65
2022-07-25T09:14:47.900Z,977.60
2022-07-25T09:15:47.854Z,977.59
2022-07-25T09:16:47.858Z,977.57
2022-07-25T09:17:47.857Z,977.55
2022-07-25T09:18:47.906Z,977.51
2022-07-25T09:19:47.816Z,977.50
2022-07-25T09:20:47.917Z,977.47
2022-07-25T09:21:47.796Z,977.51
2022-07-25T09:22:47.777Z,977.47
2022-07-25T09:23:47.777Z,977.50
2022-07-25T09:24:47.923Z,977.51
2022-07-25T09:25:47.785Z,977.46
2022-07-25T09:26:47.740Z,977.49
2022-07-25T09:27:47.762Z,977.47
2022-07-25T09:28:47.745Z,977.49
2022-07-25T09:29:47.703Z,977.49
2022-07-25T09:30:47.827Z,977.43
2022-07-25T09:31:47.989Z,977.43
2022-07-25T09:32:47.669Z,977.44
2022-07-25T09:33:47.763Z,977.43
2022-07-25T09:34:47.634Z,977.42
2022-07-25T09:35:47.716Z,977.37
2022-07-25T09:36:47.619Z,977.37
2022-07-25T09:37:47.745Z,977.38
2022-07-25T09:38:47.596Z,977.37
2022-07-25T09:39:48.399Z,977.38
2022-07-25T09:40:47.602Z,977.33
2022-07-25T09:41:47.797Z,977.35
2022-07-25T09:42:47.582Z,977.36
2022-07-25T09:43:47.759Z,977.34
2022-07-25T09:44:47.571Z,977.33
2022-07-25T09:45:47.752Z,977.31
2022-07-25T09:46:47.728Z,977.30
2022-07-25T09:47:47.726Z,977.28
2022-07-25T09:48:47.694Z,977.24
2022-07-25T09:49:47.471Z,977.19
2022-07-25T09:50:47.585Z,977.24
2022-07-25T09:51:47.445Z,977.23
2022-07-25T09:52:47.646Z,977.24
2022-07-25T09:53:47.417Z,977.24
2022-07-25T09:54:47.566Z,977.23
2022-07-25T09:55:47.408Z,977.20
2022-07-25T09:56:47.583Z,977.17
2022-07-25T09:57:47.492Z,977.18
2022-07-25T09:58:47.352Z,977.14
2022-07-25T09:59:47.449Z,977.12
2022-07-25T10:00:47.576Z,977.19
2022-07-25T10:01:47.522Z,977.18
2022-07-25T10:02:47.379Z,977.17
2022-07-25T10:03:47.507Z,977.14
2022-07-25T10:04:47.297Z,977.21
2022-07-25T10:05:47.430Z,977.20
2022-07-25T10:06:47.257Z,977.16
2022-07-25T10:07:47.416Z,977.17
2022-07-25T10:08:47.277Z,977.22
2022-07-25T10:09:47.485Z,977.12
2022-07-25T10:10:47.246Z,977.15
2022-07-25T10:11:47.403Z,977.12
2022-07-25T10:12:47.288Z,977.10
2022-07-25T10:13:47.432Z,977.11
2022-07-25T10:14:47.262Z,977.08
2022-07-25T10:15:47.211Z,977.13
2022-07-25T10:16:47.421Z,977.10
2022-07-25T10:17:47.116Z,977.07
2022-07-25T10:18:47.245Z,977.10
2022-07-25T10:19:51.776Z,977.10
2022-07-25T10:20:47.405Z,977.06
2022-07-25T10:21:47.086Z,977.03
2022-07-25T10:22:56.186Z,977.02
2022-07-25T10:23:47.116Z,976.99
2022-07-25T10:24:47.490Z,977.03
2022-07-25T10:25:49.188Z,977.07
2022-07-25T10:26:47.086Z,977.05
2022-07-25T10:27:47.031Z,976.99
2022-07-25T10:28:47.031Z,976.96
2022-07-25T10:29:46.992Z,976.99
2022-07-25T10:30:47.030Z,976.98
2022-07-25T10:31:51.078Z,976.96
2022-07-25T10:32:47.021Z,976.94
2022-07-25T10:33:46.955Z,976.99
2022-07-25T10:34:46.956Z,976.96
2022-07-25T10:35:46.936Z,976.94
2022-07-25T10:36:46.941Z,976.92
2022-07-25T10:37:49.137Z,976.96
2022-07-25T10:38:46.946Z,976.92
2022-07-25T10:39:46.877Z,976.88
2022-07-25T10:40:46.939Z,976.93
2022-07-25T10:41:46.847Z,976.91
2022-07-25T10:42:46.941Z,976.85
2022-07-25T10:43:48.691Z,976.85
2022-07-25T10:44:46.953Z,976.80
2022-07-25T10:45:46.856Z,976.78
2022-07-25T10:46:46.812Z,976.81
2022-07-25T10:47:46.772Z,976.80
2022-07-25T10:48:46.974Z,976.79
2022-07-25T10:50:13.531Z,976.75
2022-07-25T10:50:55.393Z,976.79
2022-07-25T10:51:46.782Z,976.74
2022-07-25T10:52:46.938Z,976.76
2022-07-25T10:53:46.791Z,976.77
2022-07-25T10:54:46.757Z,976.77
2022-07-25T10:55:59.817Z,976.74
2022-07-25T10:56:46.947Z,976.74
2022-07-25T10:58:15.249Z,976.69
2022-07-25T10:58:46.683Z,976.68
2022-07-25T10:59:46.791Z,976.69
2022-07-25T11:00:46.731Z,976.68
2022-07-25T11:01:46.835Z,976.65
2022-07-25T11:02:46.651Z,976.64
2022-07-25T11:03:46.772Z,976.61
2022-07-25T11:04:46.611Z,976.65
2022-07-25T11:05:46.776Z,976.58
2022-07-25T11:06:46.687Z,976.66
2022-07-25T11:08:11.166Z,976.61
2022-07-25T11:08:46.625Z,976.59
2022-07-25T11:09:46.537Z,976.61
2022-07-25T11:10:46.616Z,976.56
2022-07-25T11:11:46.566Z,976.56
2022-07-25T11:12:46.636Z,976.57
2022-07-25T11:13:46.466Z,976.52
2022-07-25T11:14:46.637Z,976.50
2022-07-25T11:15:46.472Z,976.49
2022-07-25T11:16:46.743Z,976.52
2022-07-25T11:17:46.535Z,976.48
2022-07-25T11:18:46.621Z,976.51
2022-07-25T11:19:46.485Z,976.50
2022-07-25T11:20:46.425Z,976.49
2022-07-25T11:21:46.450Z,976.44
2022-07-25T11:22:46.442Z,976.43
2022-07-25T11:23:46.396Z,976.43
2022-07-25T11:24:46.626Z,976.44
2022-07-25T11:25:46.452Z,976.40
2022-07-25T11:26:46.335Z,976.37
2022-07-25T11:27:46.466Z,976.33
2022-07-25T11:28:46.368Z,976.38
2022-07-25T11:29:46.315Z,976.35
2022-07-25T11:30:46.291Z,976.31
2022-07-25T11:31:46.606Z,976.35
2022-07-25T11:32:46.294Z,976.28
2022-07-25T11:33:46.462Z,976.33
2022-07-25T11:34:46.387Z,976.24
2022-07-25T11:35:46.306Z,976.32
2022-07-25T11:36:46.212Z,976.29
2022-07-25T11:37:46.435Z,976.27
2022-07-25T11:38:46.172Z,976.28
2022-07-25T11:39:46.185Z,976.24
2022-07-25T11:40:46.346Z,976.23
2022-07-25T11:41:46.187Z,976.24
2022-07-25T11:42:46.316Z,976.24
2022-07-25T11:43:46.156Z,976.12
2022-07-25T11:44:48.084Z,976.17
2022-07-25T11:45:46.158Z,976.21
2022-07-25T11:46:46.167Z,976.14
2022-07-25T11:47:46.076Z,976.10
2022-07-25T11:48:46.167Z,976.09
2022-07-25T11:49:46.152Z,976.08
2022-07-25T11:50:46.066Z,976.05
2022-07-25T11:51:46.032Z,976.05
2022-07-25T11:52:46.111Z,976.00
2022-07-25T11:53:46.013Z,976.03
2022-07-25T11:54:45.991Z,976.02
2022-07-25T11:55:45.981Z,976.10
2022-07-25T11:56:45.972Z,976.03
2022-07-25T11:57:45.956Z,976.01
2022-07-25T11:58:46.047Z,976.02
2022-07-25T11:59:46.142Z,976.04
2022-07-25T12:00:46.073Z,976.00
2022-07-25T12:01:45.906Z,975.93
2022-07-25T12:02:46.112Z,975.94
2022-07-25T12:03:45.925Z,975.93
2022-07-25T12:04:46.026Z,975.90
2022-07-25T12:05:45.941Z,975.89
2022-07-25T12:06:46.010Z,975.89
2022-07-25T12:07:45.871Z,975.91
2022-07-25T12:08:45.830Z,975.85
2022-07-25T12:09:45.845Z,975.90
2022-07-25T12:10:46.006Z,975.85
2022-07-25T12:11:45.890Z,975.89
2022-07-25T12:12:45.751Z,975.88
2022-07-25T12:13:45.827Z,975.84
2022-07-25T12:14:45.977Z,975.81
2022-07-25T12:15:45.816Z,975.81
2022-07-25T12:16:45.948Z,975.75
2022-07-25T12:17:45.846Z,975.75
2022-07-25T12:18:45.697Z,975.74
2022-07-25T12:19:45.688Z,975.75
2022-07-25T12:20:45.965Z,975.72
2022-07-25T12:21:45.796Z,975.71
2022-07-25T12:22:45.771Z,975.72
2022-07-25T12:23:45.811Z,975.68
2022-07-25T12:24:45.685Z,975.68
2022-07-25T12:25:45.610Z,975.65
2022-07-25T12:26:45.652Z,975.61
2022-07-25T12:27:45.571Z,975.60
2022-07-25T12:28:45.732Z,975.55
2022-07-25T12:29:45.811Z,975.62